Time;durP1;ratioP1;P1;durP2;ratioP2;P2;SDS_P1;SDS_P2;PMS_P1;PMS_P2;Temp;Humidity;BMP_temperature;BMP_pressure;BME280_temperature;BME280_humidity;BME280_pressure;Samples;Min_cycle;Max_cycle;Signal;HPM_P1;HPM_P2
2022/06/18 00:02:28;;;;;;;;;19.00;17.00;;;;;16.05;88.00;100237.66;6283600;20;2834724;-58
2022/06/18 00:04:57;;;;;;;;;25.00;19.00;;;;;16.17;87.15;100231.31;6283404;20;2842957;-59
2022/06/18 00:07:25;;;;;;;;;20.00;18.50;;;;;16.06;88.05;100231.25;6285519;20;2848206;-58
2022/06/18 00:10:03;;;;;;;;;18.50;17.50;;;;;16.07;88.41;100241.13;6280274;20;2838816;-58
2022/06/18 00:15:32;;;;;;;;;20.00;20.00;;;;;16.37;86.55;100237.91;6283231;20;2492482;-58
2022/06/18 00:18:02;;;;;;;;;22.00;20.00;;;;;16.00;87.92;100241.56;6284571;20;2833677;-59
2022/06/18 00:20:35;;;;;;;;;19.50;18.00;;;;;16.11;87.44;100239.88;6282469;20;2833617;-58
2022/06/18 00:23:09;;;;;;;;;16.67;16.67;;;;;15.94;87.26;100243.88;6287256;20;3552341;-59
2022/06/18 00:25:46;;;;;;;;;19.00;18.67;;;;;16.02;87.41;100238.75;6314665;20;3564860;-56
2022/06/18 00:28:23;;;;;;;;;18.00;18.00;;;;;15.81;87.94;100235.81;6315278;20;2821141;-58
2022/06/18 00:30:52;;;;;;;;;15.50;13.50;;;;;15.64;89.24;100238.84;6279647;20;2491914;-59
2022/06/18 00:33:23;;;;;;;;;20.00;17.00;;;;;15.78;88.64;100230.63;6285352;20;2834733;-58
2022/06/18 00:35:56;;;;;;;;;19.00;19.00;;;;;15.63;90.07;100235.28;6282385;20;2493983;-58
2022/06/18 00:38:34;;;;;;;;;21.00;19.50;;;;;15.85;88.09;100226.47;6278186;20;2827393;-57
2022/06/18 00:41:06;;;;;;;;;20.50;20.50;;;;;15.52;89.10;100227.97;6280656;20;2841118;-58
2022/06/18 00:44:04;;;;;;;;;21.50;21.50;;;;;15.59;90.25;100228.38;6279946;20;2838861;-59
2022/06/18 00:46:45;;;;;;;;;25.33;24.67;;;;;15.53;90.44;100229.72;6277101;20;2865003;-57
2022/06/18 00:49:58;;;;;;;;;29.67;28.67;;;;;15.43;90.48;100234.06;6311227;20;3591889;-58
2022/06/18 00:52:41;;;;;;;;;34.67;31.33;;;;;15.57;90.47;100233.91;6278109;20;2852614;-58
2022/06/18 00:55:22;;;;;;;;;40.00;33.33;;;;;15.73;87.85;100230.09;6315106;20;3590879;-59
2022/06/18 00:58:31;;;;;;;;;42.00;36.00;;;;;15.74;88.16;100235.38;6280408;20;2852325;-59
2022/06/18 01:01:00;;;;;;;;;43.33;37.00;;;;;15.79;87.68;100238.59;6313070;20;3603412;-59
2022/06/18 01:03:38;;;;;;;;;44.50;37.50;;;;;15.50;89.86;100235.31;6281067;20;2833725;-59
2022/06/18 01:06:31;;;;;;;;;54.00;45.00;;;;;15.77;87.83;100239.69;6282425;20;2850319;-59
2022/06/18 01:09:12;;;;;;;;;66.67;52.33;;;;;15.45;88.83;100233.94;6281521;20;3635662;-59
2022/06/18 01:11:42;;;;;;;;;63.50;50.00;;;;;15.25;90.26;100233.56;6313869;20;3504915;-59
2022/06/18 01:14:16;;;;;;;;;81.33;77.33;;;;;15.53;88.57;100229.72;6308727;20;3662855;-59
2022/06/18 01:16:46;;;;;;;;;76.50;66.00;;;;;15.08;89.46;100236.59;6284645;20;4412723;-57
2022/06/18 01:19:40;;;;;;;;;58.33;47.33;;;;;15.31;89.21;100227.69;6311414;20;3607559;-59
2022/06/18 01:23:08;;;;;;;;;63.33;52.00;;;;;15.14;89.72;100230.75;6280264;20;2861855;-59
2022/06/18 01:25:37;;;;;;;;;49.67;40.00;;;;;15.12;89.51;100222.75;6312937;20;2855542;-57
2022/06/18 01:28:09;;;;;;;;;31.67;29.67;;;;;15.20;88.97;100232.16;6314254;20;3600309;-57
2022/06/18 01:30:40;;;;;;;;;28.50;24.50;;;;;15.26;88.27;100235.28;6280735;20;2856550;-58
2022/06/18 01:33:09;;;;;;;;;21.67;21.67;;;;;15.22;88.08;100225.66;6283991;20;3579456;-56
2022/06/18 01:35:44;;;;;;;;;16.00;16.00;;;;;15.10;87.94;100223.84;6278314;20;2829504;-58
2022/06/18 01:38:14;;;;;;;;;17.50;17.50;;;;;15.17;87.44;100222.44;6279603;20;2837753;-58
2022/06/18 01:40:56;;;;;;;;;17.00;17.00;;;;;15.20;86.88;100224.91;6280293;20;2835665;-61
2022/06/18 01:43:26;;;;;;;;;18.00;17.00;;;;;15.16;86.92;100228.78;6279114;20;3565861;-61
2022/06/18 01:46:01;;;;;;;;;16.00;15.00;;;;;15.33;86.22;100214.06;6279818;20;2819209;-59
2022/06/18 01:48:35;;;;;;;;;20.00;18.00;;;;;15.45;85.70;100218.56;6277626;20;2496265;-61
2022/06/18 01:51:16;;;;;;;;;18.00;17.00;;;;;15.28;86.33;100216.22;6278296;20;3566954;-61
2022/06/18 01:54:15;;;;;;;;;17.00;16.00;;;;;15.33;86.32;100220.31;6281073;20;2483677;-60
2022/06/18 01:57:01;;;;;;;;;18.00;17.00;;;;;15.25;86.24;100217.31;6276204;20;3564898;-60
2022/06/18 01:59:42;;;;;;;;;14.50;13.50;;;;;15.31;85.58;100221.41;6275502;20;2804535;-61
2022/06/18 02:02:11;;;;;;;;;18.67;18.67;;;;;15.37;85.42;100219.09;6282642;20;3574178;-61
2022/06/18 02:04:41;;;;;;;;;16.67;14.67;;;;;15.44;85.05;100210.56;6274116;20;3546208;-61
2022/06/18 02:07:13;;;;;;;;;19.00;16.00;;;;;15.49;84.50;100220.06;6277900;20;2483639;-61
2022/06/18 02:10:05;;;;;;;;;15.50;15.50;;;;;15.42;84.63;100224.19;6278235;20;2492071;-60
2022/06/18 02:12:39;;;;;;;;;16.00;14.00;;;;;15.25;86.29;100219.16;6278756;20;3538849;-60
2022/06/18 02:15:29;;;;;;;;;17.00;16.00;;;;;15.35;85.61;100220.22;6279451;20;3550350;-60
2022/06/18 02:18:05;;;;;;;;;17.00;13.50;;;;;15.08;85.96;100214.94;6279350;20;2491986;-60
2022/06/18 02:20:51;;;;;;;;;17.00;15.00;;;;;15.15;85.98;100206.28;6278738;20;3541868;-60
2022/06/18 02:23:22;;;;;;;;;23.33;22.33;;;;;15.17;86.82;100205.34;6280990;20;2851329;-60
2022/06/18 02:25:52;;;;;;;;;31.33;29.00;;;;;15.21;85.83;100214.94;6309854;20;3580466;-60
2022/06/18 02:28:36;;;;;;;;;35.00;31.67;;;;;15.33;85.74;100209.50;6281986;20;2854438;-60
2022/06/18 02:31:05;;;;;;;;;30.00;30.00;;;;;15.13;86.41;100213.66;6310930;20;2657588;-60
2022/06/18 02:33:42;;;;;;;;;34.33;29.67;;;;;15.10;87.34;100213.88;6280429;20;3582530;-60
2022/06/18 02:36:34;;;;;;;;;22.00;22.00;;;;;14.71;89.05;100212.16;6278051;20;2841572;-61
2022/06/18 02:39:17;;;;;;;;;20.00;18.50;;;;;15.02;88.20;100221.69;6281089;20;2838174;-60
2022/06/18 02:41:46;;;;;;;;;15.50;15.50;;;;;15.14;86.65;100220.81;6280090;20;2815910;-61
2022/06/18 02:44:15;;;;;;;;;18.00;18.00;;;;;15.30;85.92;100220.56;6279834;20;2838209;-60
2022/06/18 02:46:44;;;;;;;;;21.33;18.00;;;;;15.07;86.26;100224.91;6277802;20;3556603;-61
2022/06/18 02:49:14;;;;;;;;;18.50;18.50;;;;;15.19;85.51;100223.16;6276843;20;2487816;-60
2022/06/18 02:51:43;;;;;;;;;16.00;16.00;;;;;15.19;84.68;100216.88;6276357;20;2492027;-61
2022/06/18 02:54:11;;;;;;;;;15.50;15.50;;;;;15.18;84.56;100220.56;6283301;20;2823214;-60
2022/06/18 02:56:40;;;;;;;;;12.00;12.00;;;;;15.11;83.91;100221.03;6276771;20;3528360;-60
2022/06/18 02:59:09;;;;;;;;;14.00;14.00;;;;;14.91;84.58;100227.84;6280742;20;3534788;-60
2022/06/18 03:01:37;;;;;;;;;18.00;14.00;;;;;14.84;84.44;100228.38;6310509;20;3542967;-60
2022/06/18 03:04:06;;;;;;;;;13.00;11.33;;;;;14.91;84.07;100225.16;6278486;20;3542996;-60
2022/06/18 03:06:35;;;;;;;;;16.00;13.00;;;;;15.03;83.74;100223.38;6280038;20;2812806;-60
2022/06/18 03:09:03;;;;;;;;;12.00;12.00;;;;;15.01;83.32;100236.19;6285259;20;2802343;-60
2022/06/18 03:14:19;;;;;;;;;13.00;11.33;;;;;15.07;82.63;100233.03;6311580;20;3510643;-60
2022/06/18 03:16:49;;;;;;;;;13.00;13.00;;;;;15.00;82.68;100223.63;6309969;20;3523423;-60
2022/06/18 03:19:43;;;;;;;;;7.80;7.80;;;;;15.06;82.93;100223.19;6336015;20;2755470;-60
2022/06/18 03:22:21;;;;;;;;;13.50;12.50;;;;;15.15;82.95;100229.78;6313596;20;2791914;-60
2022/06/18 03:24:49;;;;;;;;;13.00;13.00;;;;;15.00;83.97;100234.44;6281902;20;2791970;-59
2022/06/18 03:27:18;;;;;;;;;14.00;13.00;;;;;15.15;83.35;100237.88;6283647;20;2811144;-61
2022/06/18 03:29:49;;;;;;;;;15.50;14.50;;;;;15.20;82.30;100230.31;6280031;20;2808728;-61
2022/06/18 03:32:18;;;;;;;;;14.00;12.00;;;;;15.37;82.06;100234.50;6281339;20;2803497;-60
2022/06/18 03:34:46;;;;;;;;;15.00;11.00;;;;;15.30;82.16;100235.94;6279584;20;3508721;-60
2022/06/18 03:37:15;;;;;;;;;12.33;12.33;;;;;15.31;82.09;100233.09;6308613;20;3530461;-60
2022/06/18 03:39:43;;;;;;;;;15.00;13.00;;;;;15.42;81.79;100229.59;6280477;20;2793999;-61
2022/06/18 03:42:11;;;;;;;;;12.00;12.00;;;;;15.53;81.86;100237.81;6281986;20;2806584;-60
2022/06/18 03:44:40;;;;;;;;;13.00;13.00;;;;;15.61;81.57;100236.38;6284877;20;3521229;-60
2022/06/18 03:47:10;;;;;;;;;12.60;12.60;;;;;15.69;80.93;100232.19;6338017;20;2787757;-60
2022/06/18 03:49:37;;;;;;;;;15.00;12.00;;;;;15.71;80.92;100237.47;6284909;20;2802397;-57
2022/06/18 03:52:10;;;;;;;;;12.00;12.00;;;;;15.71;81.70;100234.75;6283435;20;3532677;-57
2022/06/18 03:54:39;;;;;;;;;14.67;13.33;;;;;15.68;82.09;100229.53;6283471;20;3517966;-58
2022/06/18 03:57:12;;;;;;;;;15.50;14.50;;;;;15.50;83.64;100229.91;6318136;20;2819026;-58
2022/06/18 03:59:41;;;;;;;;;15.00;12.67;;;;;15.55;83.79;100227.72;6282319;20;3538776;-56
2022/06/18 04:02:09;;;;;;;;;13.00;13.00;;;;;15.73;83.19;100225.53;6316510;20;3523193;-56
2022/06/18 04:04:37;;;;;;;;;14.00;14.00;;;;;15.75;82.43;100236.28;6319509;20;2806547;-56
2022/06/18 04:07:13;;;;;;;;;14.67;13.67;;;;;15.79;82.74;100233.19;6284317;20;3531524;-57
2022/06/18 04:09:43;;;;;;;;;14.00;14.00;;;;;15.81;82.54;100235.81;6278753;20;3539871;-58
2022/06/18 04:12:11;;;;;;;;;14.67;14.67;;;;;15.85;82.34;100237.31;6283309;20;2815285;-58
2022/06/18 04:14:40;;;;;;;;;12.67;12.67;;;;;16.14;81.86;100234.22;6314964;20;3530547;-59
2022/06/18 04:17:13;;;;;;;;;14.00;13.50;;;;;16.04;82.09;100234.09;6277907;20;2609675;-58
2022/06/18 04:19:43;;;;;;;;;11.33;11.33;;;;;16.29;82.43;100234.91;6280443;20;3521185;-57
2022/06/18 04:22:10;;;;;;;;;15.00;14.00;;;;;16.60;81.80;100244.25;6311740;20;2492028;-58
2022/06/18 04:24:40;;;;;;;;;11.67;11.67;;;;;16.82;80.58;100249.75;6282797;20;3527419;-56
2022/06/18 04:27:08;;;;;;;;;12.00;12.00;;;;;16.79;80.87;100241.00;6316881;20;2809895;-58
2022/06/18 04:29:36;;;;;;;;;14.67;13.33;;;;;16.95;80.47;100236.06;6270873;20;3532569;-59
2022/06/18 04:32:05;;;;;;;;;13.00;13.00;;;;;17.06;79.38;100237.94;6319290;20;2798320;-59
2022/06/18 04:34:33;;;;;;;;;13.00;12.00;;;;;17.32;78.52;100247.59;6290721;20;2812799;-58
2022/06/18 04:37:03;;;;;;;;;115.33;97.33;;;;;17.73;76.56;100251.47;6285810;20;3708544;-59
2022/06/18 04:39:32;;;;;;;;;20.00;19.00;;;;;17.67;75.81;100252.00;6283084;20;3584010;-58
2022/06/18 04:42:00;;;;;;;;;13.33;13.00;;;;;17.92;75.41;100256.28;6276582;20;3533573;-58
2022/06/18 04:44:29;;;;;;;;;16.67;15.67;;;;;18.02;75.40;100253.66;6276470;20;3553381;-59
2022/06/18 04:46:58;;;;;;;;;16.33;14.33;;;;;18.13;74.95;100247.31;6279172;20;3526326;-59
2022/06/18 04:49:26;;;;;;;;;13.00;11.33;;;;;18.20;73.60;100254.84;6312961;20;3502369;-60
2022/06/18 04:51:55;;;;;;;;;13.67;13.67;;;;;18.49;74.40;100264.22;6316134;20;2802328;-58
2022/06/18 04:54:23;;;;;;;;;11.67;10.67;;;;;18.47;73.91;100267.06;6311362;20;3512840;-58
2022/06/18 04:56:51;;;;;;;;;17.00;13.00;;;;;18.47;72.40;100267.06;6314042;20;2819026;-59
2022/06/18 04:59:20;;;;;;;;;12.67;12.00;;;;;18.61;72.18;100264.00;6282694;20;3539951;-59
2022/06/18 05:02:05;;;;;;;;;13.00;13.00;;;;;18.70;72.39;100264.25;6281174;20;3537817;-59
2022/06/18 05:04:33;;;;;;;;;12.00;12.00;;;;;18.90;70.83;100267.97;6311110;20;3515870;-58
2022/06/18 05:07:03;;;;;;;;;11.60;10.60;;;;;19.01;69.67;100271.50;6337787;20;2790048;-58
2022/06/18 05:09:32;;;;;;;;;11.33;10.00;;;;;19.15;68.10;100283.88;6282293;20;3515828;-59
2022/06/18 05:12:02;;;;;;;;;7.20;7.20;;;;;19.30;68.24;100282.53;6337561;20;2735672;-57
2022/06/18 05:14:31;;;;;;;;;10.50;10.00;;;;;19.52;67.24;100286.06;6318533;20;2784813;-59
2022/06/18 05:17:02;;;;;;;;;12.00;11.00;;;;;19.52;66.77;100281.47;6281420;20;2794135;-61
2022/06/18 05:19:34;;;;;;;;;9.67;9.67;;;;;19.63;66.83;100282.38;6311670;20;3495003;-61
2022/06/18 05:22:03;;;;;;;;;11.67;11.67;;;;;20.07;65.26;100288.41;6317130;20;2800418;-59
2022/06/18 05:24:32;;;;;;;;;10.67;10.00;;;;;20.28;64.80;100289.16;6310222;20;3508584;-59
2022/06/18 05:27:01;;;;;;;;;11.00;10.00;;;;;20.55;64.70;100296.66;6311004;20;3514880;-60
2022/06/18 05:29:29;;;;;;;;;9.00;8.00;;;;;20.89;63.67;100289.88;6313876;20;2748194;-60
2022/06/18 05:31:58;;;;;;;;;13.00;10.00;;;;;21.17;62.03;100297.16;6313045;20;2792164;-60
2022/06/18 05:34:26;;;;;;;;;11.00;9.50;;;;;21.20;63.06;100296.00;6320554;20;2775257;-60
2022/06/18 05:36:54;;;;;;;;;11.00;10.00;;;;;21.74;61.17;100304.44;6282666;20;3502432;-60
2022/06/18 05:39:23;;;;;;;;;11.67;11.67;;;;;21.73;61.24;100306.34;6311816;20;3508946;-60
2022/06/18 05:41:51;;;;;;;;;10.33;9.00;;;;;21.67;61.56;100304.22;6320975;20;2774253;-60
2022/06/18 05:44:20;;;;;;;;;10.33;9.67;;;;;22.25;59.35;100308.47;6313433;20;2773236;-60
2022/06/18 05:46:49;;;;;;;;;5.80;5.80;;;;;22.67;59.11;100308.75;6335832;20;2745073;-59
2022/06/18 05:49:18;;;;;;;;;10.33;9.33;;;;;22.62;58.03;100318.44;6311216;20;2771303;-61
2022/06/18 05:51:47;;;;;;;;;10.20;9.20;;;;;23.23;57.38;100325.84;6340213;20;2784686;-60
2022/06/18 05:54:16;;;;;;;;;9.00;9.00;;;;;23.18;55.66;100329.03;6281375;20;2754456;-60
2022/06/18 05:56:44;;;;;;;;;7.67;7.67;;;;;23.45;54.74;100325.28;6312700;20;2745054;-60
2022/06/18 05:59:13;;;;;;;;;13.33;11.00;;;;;23.17;53.47;100320.97;6318188;20;2791944;-60
2022/06/18 06:01:41;;;;;;;;;8.00;8.00;;;;;22.63;55.31;100326.50;6321096;20;2741987;-60
2022/06/18 06:04:11;;;;;;;;;14.00;14.00;;;;;22.99;55.90;100321.88;6312694;20;3529574;-58
2022/06/18 06:06:40;;;;;;;;;7.67;7.67;;;;;23.42;53.96;100320.13;6307833;20;2740941;-58
2022/06/18 06:09:13;;;;;;;;;6.60;6.40;;;;;23.70;51.90;100319.94;6339351;20;2729576;-56
2022/06/18 06:11:42;;;;;;;;;6.00;6.00;;;;;23.54;50.84;100322.56;6338724;20;2734088;-57
2022/06/18 06:14:10;;;;;;;;;9.00;9.00;;;;;24.16;51.36;100323.22;6281756;20;2752482;-56
2022/06/18 06:16:39;;;;;;;;;19.00;19.00;;;;;24.24;48.90;100326.00;6311538;20;2836745;-58
2022/06/18 06:19:09;;;;;;;;;7.67;7.67;;;;;23.89;48.94;100324.34;6281086;20;2752347;-58
2022/06/18 06:21:38;;;;;;;;;8.40;7.20;;;;;23.99;48.20;100322.31;6340405;20;2751349;-59
2022/06/18 06:24:07;;;;;;;;;7.00;7.00;;;;;24.45;48.64;100333.78;6287822;20;2733672;-58
2022/06/18 06:26:37;;;;;;;;;7.80;7.80;;;;;24.46;48.36;100331.91;6342100;20;2754431;-59
2022/06/18 06:29:05;;;;;;;;;9.00;9.00;;;;;24.37;48.25;100335.63;6282777;20;2750252;-58
2022/06/18 06:31:35;;;;;;;;;10.20;7.60;;;;;24.81;47.71;100332.66;6341698;20;2777342;-58
2022/06/18 06:34:04;;;;;;;;;11.33;8.33;;;;;25.06;46.44;100333.50;6292957;20;2777557;-58
2022/06/18 06:36:33;;;;;;;;;7.20;5.60;;;;;24.68;46.56;100334.00;6341665;20;2733959;-59
2022/06/18 06:39:03;;;;;;;;;6.00;6.00;;;;;25.15;44.63;100336.13;6325085;20;2735759;-58
2022/06/18 06:41:33;;;;;;;;;6.80;6.80;;;;;25.78;43.58;100336.31;6335738;20;2736699;-59
2022/06/18 06:44:03;;;;;;;;;7.60;6.20;;;;;26.13;43.12;100340.50;6312364;20;2744010;-58
2022/06/18 06:46:32;;;;;;;;;7.00;5.00;;;;;25.87;42.57;100346.28;6283137;20;2749204;-59
2022/06/18 06:49:02;;;;;;;;;5.40;5.40;;;;;25.91;44.00;100347.66;6343967;20;2741955;-58
2022/06/18 06:51:37;;;;;;;;;7.00;6.00;;;;;26.19;42.89;100349.94;6284002;20;2746228;-59
2022/06/18 06:54:09;;;;;;;;;5.00;4.80;;;;;25.59;43.42;100354.94;6340216;20;2740905;-57
2022/06/18 06:59:26;;;;;;;;;9.00;6.00;;;;;25.87;43.55;100351.78;6286082;20;2760660;-59
2022/06/18 07:01:54;;;;;;;;;6.00;6.00;;;;;25.99;41.66;100350.38;6318411;20;2742979;-59
2022/06/18 07:04:23;;;;;;;;;9.00;6.00;;;;;26.85;41.27;100350.41;6326232;20;2742971;-58
2022/06/18 07:06:55;;;;;;;;;4.60;4.60;;;;;26.80;42.23;100353.69;6341404;20;2735685;-58
2022/06/18 07:09:23;;;;;;;;;4.00;2.33;;;;;26.75;41.40;100349.78;6315829;20;2749215;-58
2022/06/18 07:11:52;;;;;;;;;6.00;6.00;;;;;26.50;40.90;100345.28;6318745;20;2739876;-58
2022/06/18 07:14:20;;;;;;;;;7.33;6.00;;;;;25.89;43.09;100341.47;6326362;20;2744060;-59
2022/06/18 07:16:52;;;;;;;;;6.00;6.00;;;;;26.76;41.67;100346.88;6341576;20;2743478;-58
2022/06/18 07:19:21;;;;;;;;;10.00;9.00;;;;;27.31;39.80;100345.72;6288725;20;2765924;-58
2022/06/18 07:21:52;;;;;;;;;5.00;3.20;;;;;27.40;39.45;100337.38;6347757;20;2748210;-58
2022/06/18 07:24:21;;;;;;;;;4.80;4.00;;;;;27.17;38.87;100341.03;6313376;20;2751290;-56
2022/06/18 07:26:51;;;;;;;;;5.00;5.00;;;;;26.87;38.59;100340.06;6316058;20;2740899;-58
2022/06/18 07:29:23;;;;;;;;;7.00;5.00;;;;;27.12;39.75;100343.44;6297036;20;2745032;-59
2022/06/18 07:31:52;;;;;;;;;5.60;4.20;;;;;27.27;37.51;100341.63;6348377;20;2744105;-59
2022/06/18 07:34:21;;;;;;;;;6.00;5.00;;;;;26.78;37.08;100338.38;6299738;20;2745108;-59
2022/06/18 07:36:49;;;;;;;;;4.67;4.67;;;;;27.35;38.87;100340.69;6323725;20;2743057;-60
2022/06/18 07:39:18;;;;;;;;;2.60;2.60;;;;;27.60;36.72;100344.06;6345847;20;2731898;-60
2022/06/18 07:41:54;;;;;;;;;4.60;4.60;;;;;27.33;38.72;100342.75;6348024;20;2739826;-59
2022/06/18 07:44:25;;;;;;;;;4.40;4.40;;;;;27.92;36.45;100344.75;6315608;20;2743046;-59
2022/06/18 07:46:58;;;;;;;;;4.20;4.20;;;;;27.47;36.12;100349.38;6311532;20;2745051;-60
2022/06/18 07:49:26;;;;;;;;;8.33;6.00;;;;;27.57;35.81;100341.69;6288682;20;2738822;-59
2022/06/18 07:51:56;;;;;;;;;5.00;5.00;;;;;27.68;36.11;100346.72;6345262;20;2745067;-59
2022/06/18 07:54:25;;;;;;;;;8.20;7.00;;;;;27.43;35.61;100340.59;6315496;20;2748170;-59
2022/06/18 07:56:54;;;;;;;;;5.00;5.00;;;;;28.19;35.85;100340.44;6290104;20;2737744;-59
2022/06/18 07:59:23;;;;;;;;;4.40;4.00;;;;;27.24;36.52;100332.88;6345459;20;2736726;-58
2022/06/18 08:01:53;;;;;;;;;5.00;5.00;;;;;27.89;35.38;100331.34;6315033;20;2745070;-60
2022/06/18 08:04:22;;;;;;;;;5.40;4.20;;;;;27.42;36.08;100340.81;6317399;20;2737776;-59
2022/06/18 08:06:52;;;;;;;;;6.40;6.40;;;;;27.53;36.26;100334.81;6313385;20;2735689;-59
2022/06/18 08:09:22;;;;;;;;;6.20;4.80;;;;;27.43;37.62;100339.75;6311595;20;2747168;-59
2022/06/18 08:11:51;;;;;;;;;7.20;6.00;;;;;27.99;36.04;100332.75;6314239;20;2745065;-59
2022/06/18 08:14:21;;;;;;;;;6.80;6.80;;;;;28.10;37.20;100341.59;6315428;20;2736788;-59
2022/06/18 08:16:50;;;;;;;;;4.00;4.00;;;;;27.75;36.31;100336.66;6346145;20;2735707;-59
2022/06/18 08:19:20;;;;;;;;;5.20;5.20;;;;;28.26;35.73;100333.09;6313545;20;2747192;-59
2022/06/18 08:21:50;;;;;;;;;6.00;6.00;;;;;28.64;35.35;100333.75;6314259;20;2737795;-58
2022/06/18 08:24:21;;;;;;;;;7.67;6.00;;;;;28.15;35.05;100341.88;6318981;20;2736731;-58
2022/06/18 08:26:51;;;;;;;;;4.67;4.67;;;;;28.37;34.34;100329.81;6319122;20;2744081;-58
2022/06/18 08:29:24;;;;;;;;;8.80;6.80;;;;;28.57;34.76;100330.09;6342550;20;2737781;-58
2022/06/18 08:31:53;;;;;;;;;7.00;7.00;;;;;28.49;34.30;100327.44;6285394;20;2744042;-59
2022/06/18 08:34:23;;;;;;;;;8.00;7.00;;;;;28.96;33.29;100325.97;6322833;20;2742991;-59
2022/06/18 08:37:00;;;;;;;;;6.33;5.00;;;;;28.70;34.93;100328.47;6323541;20;2728377;-59
2022/06/18 08:39:32;;;;;;;;;5.80;5.80;;;;;28.16;34.97;100321.50;6345472;20;2739978;-59
2022/06/18 08:42:44;;;;;;;;;4.67;4.67;;;;;27.74;34.80;100321.13;6287307;20;2740935;-59
2022/06/18 08:45:29;;;;;;;;;5.67;5.67;;;;;26.44;37.59;100310.22;6317707;20;2740913;-58
2022/06/18 08:48:41;;;;;;;;;4.80;4.20;;;;;27.88;35.26;100310.28;6341558;20;2740950;-58
2022/06/18 08:52:02;;;;;;;;;5.00;5.00;;;;;26.98;36.91;100300.19;6313496;20;2737816;-59
2022/06/18 08:55:10;;;;;;;;;6.20;6.20;;;;;26.32;38.64;100305.28;6307712;20;2742974;-58
2022/06/18 08:57:56;;;;;;;;;5.00;5.00;;;;;26.48;38.25;100311.53;6289534;20;2731571;-59
2022/06/18 09:00:55;;;;;;;;;7.60;7.60;;;;;26.75;38.35;100295.53;6341042;20;2744021;-58
2022/06/18 09:03:48;;;;;;;;;9.00;8.00;;;;;28.01;35.18;100310.47;6287309;20;2754466;-58
2022/06/18 09:06:27;;;;;;;;;6.40;6.40;;;;;28.06;35.27;100305.22;6344680;20;2737752;-59
2022/06/18 09:09:47;;;;;;;;;6.33;6.33;;;;;28.85;34.54;100305.25;6285314;20;2734631;-59
2022/06/18 09:12:34;;;;;;;;;7.00;7.00;;;;;28.26;35.08;100294.41;6340105;20;2727329;-59
2022/06/18 09:15:43;;;;;;;;;6.00;6.00;;;;;28.26;33.40;100296.34;6315794;20;2739836;-58
2022/06/18 09:18:26;;;;;;;;;5.00;5.00;;;;;28.53;34.52;100298.34;6319287;20;2735731;-58
2022/06/18 09:21:09;;;;;;;;;9.67;6.00;;;;;28.39;34.31;100300.09;6313006;20;2759652;-59
2022/06/18 09:23:50;;;;;;;;;8.00;7.00;;;;;29.40;32.99;100311.06;6316595;20;2748170;-59
2022/06/18 09:26:37;;;;;;;;;7.00;7.00;;;;;29.13;33.28;100304.47;6317987;20;2744117;-59
2022/06/18 09:29:40;;;;;;;;;5.00;5.00;;;;;29.39;32.18;100301.06;6316439;20;2732532;-59
2022/06/18 09:32:40;;;;;;;;;6.20;5.00;;;;;29.27;31.33;100291.59;6342567;20;2737908;-59
2022/06/18 09:36:03;;;;;;;;;6.00;6.00;;;;;28.81;32.06;100290.13;6290147;20;2740869;-59
2022/06/18 09:39:02;;;;;;;;;7.00;6.00;;;;;28.98;34.36;100284.31;6316023;20;2734677;-59
2022/06/18 09:41:59;;;;;;;;;11.00;11.00;;;;;28.28;34.72;100289.56;6311350;20;3530594;-59
2022/06/18 09:44:50;;;;;;;;;7.00;7.00;;;;;27.21;35.83;100292.75;6317506;20;2734765;-59
2022/06/18 09:47:35;;;;;;;;;5.80;5.80;;;;;26.57;36.24;100287.59;6338312;20;2740907;-58
2022/06/18 09:50:42;;;;;;;;;7.50;7.00;;;;;26.78;35.85;100275.91;6290753;20;2631508;-58
2022/06/18 09:53:32;;;;;;;;;6.67;5.00;;;;;27.43;35.43;100285.44;6315320;20;2745091;-59
2022/06/18 09:56:24;;;;;;;;;6.67;6.67;;;;;26.86;35.60;100281.34;6316321;20;2748732;-58
2022/06/18 09:59:00;;;;;;;;;7.00;6.00;;;;;27.88;34.96;100279.94;6316844;20;2732001;-59
2022/06/18 10:01:45;;;;;;;;;10.00;8.67;;;;;28.79;34.24;100280.31;6318033;20;2759653;-58
2022/06/18 10:07:24;;;;;;;;;7.00;5.33;;;;;29.36;31.91;100272.91;6316715;20;2747286;-58
2022/06/18 10:10:03;;;;;;;;;6.20;6.20;;;;;29.07;33.09;100264.66;6340483;20;2744012;-58
2022/06/18 10:12:39;;;;;;;;;9.00;7.00;;;;;28.79;31.96;100253.53;6288289;20;2735769;-58
2022/06/18 10:15:13;;;;;;;;;9.33;8.00;;;;;29.34;33.72;100259.31;6324127;20;2759731;-59
2022/06/18 10:18:18;;;;;;;;;5.00;5.00;;;;;28.59;33.31;100253.34;6317716;20;2745079;-58
2022/06/18 10:21:53;;;;;;;;;7.33;6.67;;;;;28.20;34.62;100249.13;6316783;20;2746084;-59
2022/06/18 10:25:19;;;;;;;;;8.00;6.00;;;;;28.99;33.01;100250.94;6313096;20;2741994;-58
2022/06/18 10:28:43;;;;;;;;;7.00;7.00;;;;;27.94;34.78;100227.59;6309164;20;2752328;-58
2022/06/18 10:31:47;;;;;;;;;6.00;6.00;;;;;27.57;35.47;100229.41;6323199;20;2736800;-60
2022/06/18 10:34:52;;;;;;;;;7.67;7.67;;;;;27.96;34.39;100230.13;6318301;20;2748274;-59
2022/06/18 10:38:22;;;;;;;;;7.33;6.33;;;;;29.09;32.51;100228.47;6317159;20;2739833;-60
2022/06/18 10:41:24;;;;;;;;;10.67;9.33;;;;;29.28;32.58;100226.91;6311191;20;2779602;-59
2022/06/18 10:44:37;;;;;;;;;8.67;7.00;;;;;28.99;32.50;100226.06;6314429;20;2748231;-59
2022/06/18 10:47:17;;;;;;;;;6.00;6.00;;;;;27.92;34.73;100221.38;6311942;20;2739938;-59
2022/06/18 10:49:59;;;;;;;;;7.67;7.67;;;;;27.22;34.89;100220.00;6321711;20;2750231;-59
2022/06/18 10:52:27;;;;;;;;;9.67;7.67;;;;;27.41;35.32;100214.97;6318814;20;2756611;-60
2022/06/18 10:55:18;;;;;;;;;10.33;10.33;;;;;27.58;34.86;100217.31;6315651;20;3507683;-59
2022/06/18 10:57:50;;;;;;;;;6.67;6.67;;;;;27.66;35.59;100226.56;6291326;20;2739881;-59
2022/06/18 11:00:25;;;;;;;;;7.00;7.00;;;;;26.92;35.14;100230.13;6320544;20;2748147;-59
2022/06/18 11:03:00;;;;;;;;;9.00;7.00;;;;;27.04;35.63;100214.84;6326131;20;2735727;-59
2022/06/18 11:05:38;;;;;;;;;7.67;6.67;;;;;26.80;35.03;100221.44;6321123;20;2738899;-59
2022/06/18 11:08:22;;;;;;;;;8.00;6.00;;;;;27.93;32.84;100213.97;6320042;20;2745042;-60
2022/06/18 11:11:04;;;;;;;;;9.00;9.00;;;;;28.71;33.01;100219.66;6322447;20;2736845;-60
2022/06/18 11:13:39;;;;;;;;;10.33;7.33;;;;;28.34;32.12;100211.44;6319818;20;2763890;-59
2022/06/18 11:16:26;;;;;;;;;7.33;6.67;;;;;28.48;32.17;100215.19;6319096;20;2743108;-59
2022/06/18 11:19:02;;;;;;;;;6.67;6.67;;;;;29.17;31.99;100205.34;6324241;20;2730470;-59
2022/06/18 11:21:35;;;;;;;;;8.67;7.00;;;;;29.21;31.12;100203.91;6320081;20;2738828;-60
2022/06/18 11:24:33;;;;;;;;;7.67;7.67;;;;;29.19;31.73;100201.31;6320511;20;2756532;-59
2022/06/18 11:27:14;;;;;;;;;6.00;6.00;;;;;29.64;30.82;100201.78;6321012;20;2740903;-59
2022/06/18 11:29:56;;;;;;;;;8.00;7.00;;;;;28.24;32.89;100191.56;6317861;20;2733047;-60
2022/06/18 11:32:37;;;;;;;;;7.00;7.00;;;;;27.49;34.07;100192.78;6319968;20;2735766;-59
2022/06/18 11:35:42;;;;;;;;;10.00;8.67;;;;;27.49;33.39;100182.63;6320860;20;2768516;-58
2022/06/18 11:38:34;;;;;;;;;6.00;6.00;;;;;28.28;31.94;100180.97;6327589;20;2744031;-59
2022/06/18 11:41:29;;;;;;;;;6.67;6.67;;;;;29.12;32.53;100186.59;6320451;20;2744121;-59
2022/06/18 11:44:15;;;;;;;;;7.00;7.00;;;;;28.12;32.48;100171.94;6317668;20;2753372;-58
2022/06/18 11:47:15;;;;;;;;;6.00;6.00;;;;;27.57;34.48;100171.50;6321756;20;2737802;-58
2022/06/18 11:50:14;;;;;;;;;6.00;6.00;;;;;27.52;34.93;100164.84;6326540;20;2727346;-58
2022/06/18 11:53:17;;;;;;;;;6.67;6.67;;;;;27.36;34.09;100160.41;6317777;20;2748335;-59
2022/06/18 11:55:53;;;;;;;;;6.67;6.67;;;;;28.08;34.72;100158.72;6319075;20;2737777;-59
2022/06/18 11:58:56;;;;;;;;;6.40;6.40;;;;;28.78;33.15;100156.97;6342194;20;2733729;-60
2022/06/18 12:01:37;;;;;;;;;5.33;5.33;;;;;29.27;32.23;100151.38;6287728;20;2739865;-59